sensor_id;sensor_type;location;lat;lon;timestamp;P1;durP1;ratioP1;P2;durP2;ratioP2
81546;SDS011;71078;48.358;10.960;2023-08-17T00:00:27;7.72;;;3.90;;
81546;SDS011;71078;48.358;10.960;2023-08-17T00:02:47;7.40;;;4.00;;
81546;SDS011;71078;48.358;10.960;2023-08-17T00:05:08;10.00;;;5.18;;
81546;SDS011;71078;48.358;10.960;2023-08-17T00:07:29;8.48;;;4.45;;
81546;SDS011;71078;48.358;10.960;2023-08-17T00:09:49;8.32;;;4.50;;
81546;SDS011;71078;48.358;10.960;2023-08-17T00:12:10;8.50;;;4.72;;
81546;SDS011;71078;48.358;10.960;2023-08-17T00:14:31;8.55;;;5.20;;
81546;SDS011;71078;48.358;10.960;2023-08-17T00:16:51;7.65;;;4.20;;
81546;SDS011;71078;48.358;10.960;2023-08-17T00:19:12;9.15;;;4.80;;
81546;SDS011;71078;48.358;10.960;2023-08-17T00:21:34;9.77;;;4.63;;
81546;SDS011;71078;48.358;10.960;2023-08-17T00:23:54;7.18;;;3.97;;
81546;SDS011;71078;48.358;10.960;2023-08-17T00:26:15;8.95;;;3.97;;
81546;SDS011;71078;48.358;10.960;2023-08-17T00:28:35;9.18;;;4.07;;
81546;SDS011;71078;48.358;10.960;2023-08-17T00:30:56;8.85;;;3.90;;
81546;SDS011;71078;48.358;10.960;2023-08-17T00:33:17;9.43;;;4.90;;
81546;SDS011;71078;48.358;10.960;2023-08-17T00:35:38;8.40;;;4.97;;
81546;SDS011;71078;48.358;10.960;2023-08-17T00:37:59;7.32;;;4.18;;
81546;SDS011;71078;48.358;10.960;2023-08-17T00:40:20;7.82;;;4.90;;
81546;SDS011;71078;48.358;10.960;2023-08-17T00:42:40;8.02;;;4.32;;
81546;SDS011;71078;48.358;10.960;2023-08-17T00:45:01;7.95;;;4.07;;
81546;SDS011;71078;48.358;10.960;2023-08-17T00:47:23;9.57;;;4.60;;
81546;SDS011;71078;48.358;10.960;2023-08-17T00:49:45;8.30;;;4.25;;
81546;SDS011;71078;48.358;10.960;2023-08-17T00:52:06;8.95;;;4.43;;
81546;SDS011;71078;48.358;10.960;2023-08-17T00:54:27;8.98;;;4.50;;
81546;SDS011;71078;48.358;10.960;2023-08-17T00:56:49;10.45;;;5.05;;
81546;SDS011;71078;48.358;10.960;2023-08-17T00:59:11;9.10;;;4.40;;
81546;SDS011;71078;48.358;10.960;2023-08-17T01:01:31;8.98;;;5.20;;
81546;SDS011;71078;48.358;10.960;2023-08-17T01:03:52;8.88;;;4.50;;
81546;SDS011;71078;48.358;10.960;2023-08-17T01:06:13;8.35;;;4.18;;
81546;SDS011;71078;48.358;10.960;2023-08-17T01:08:33;8.57;;;4.07;;
81546;SDS011;71078;48.358;10.960;2023-08-17T01:11:10;8.07;;;3.95;;
81546;SDS011;71078;48.358;10.960;2023-08-17T01:14:01;8.98;;;4.70;;
81546;SDS011;71078;48.358;10.960;2023-08-17T01:16:38;10.70;;;4.60;;
81546;SDS011;71078;48.358;10.960;2023-08-17T01:19:07;9.27;;;4.63;;
81546;SDS011;71078;48.358;10.960;2023-08-17T01:21:33;10.20;;;5.35;;
81546;SDS011;71078;48.358;10.960;2023-08-17T01:23:58;9.10;;;4.93;;
81546;SDS011;71078;48.358;10.960;2023-08-17T01:26:22;11.07;;;5.97;;
81546;SDS011;71078;48.358;10.960;2023-08-17T01:28:44;9.48;;;5.07;;
81546;SDS011;71078;48.358;10.960;2023-08-17T01:33:44;9.05;;;5.18;;
81546;SDS011;71078;48.358;10.960;2023-08-17T01:36:16;10.60;;;6.22;;
81546;SDS011;71078;48.358;10.960;2023-08-17T01:38:41;8.93;;;5.22;;
81546;SDS011;71078;48.358;10.960;2023-08-17T01:41:03;9.43;;;4.53;;
81546;SDS011;71078;48.358;10.960;2023-08-17T01:43:24;10.23;;;5.85;;
81546;SDS011;71078;48.358;10.960;2023-08-17T01:45:45;10.77;;;5.68;;
81546;SDS011;71078;48.358;10.960;2023-08-17T01:48:06;10.35;;;5.10;;
81546;SDS011;71078;48.358;10.960;2023-08-17T01:50:27;10.35;;;5.82;;
81546;SDS011;71078;48.358;10.960;2023-08-17T01:52:47;10.10;;;5.28;;
81546;SDS011;71078;48.358;10.960;2023-08-17T01:55:10;10.02;;;5.95;;
81546;SDS011;71078;48.358;10.960;2023-08-17T01:57:31;9.90;;;5.88;;
81546;SDS011;71078;48.358;10.960;2023-08-17T01:59:51;12.90;;;8.63;;
81546;SDS011;71078;48.358;10.960;2023-08-17T02:02:12;12.25;;;7.00;;
81546;SDS011;71078;48.358;10.960;2023-08-17T02:04:35;11.88;;;6.60;;
81546;SDS011;71078;48.358;10.960;2023-08-17T02:06:55;12.80;;;7.38;;
81546;SDS011;71078;48.358;10.960;2023-08-17T02:09:16;10.98;;;6.82;;
81546;SDS011;71078;48.358;10.960;2023-08-17T02:11:36;12.75;;;6.18;;
81546;SDS011;71078;48.358;10.960;2023-08-17T02:13:57;14.02;;;7.28;;
81546;SDS011;71078;48.358;10.960;2023-08-17T02:16:18;13.38;;;7.40;;
81546;SDS011;71078;48.358;10.960;2023-08-17T02:18:39;12.93;;;6.97;;
81546;SDS011;71078;48.358;10.960;2023-08-17T02:21:00;11.00;;;7.13;;
81546;SDS011;71078;48.358;10.960;2023-08-17T02:23:21;12.52;;;7.43;;
81546;SDS011;71078;48.358;10.960;2023-08-17T02:25:41;11.60;;;6.28;;
81546;SDS011;71078;48.358;10.960;2023-08-17T02:28:02;10.50;;;6.32;;
81546;SDS011;71078;48.358;10.960;2023-08-17T02:30:24;11.32;;;6.45;;
81546;SDS011;71078;48.358;10.960;2023-08-17T02:32:44;11.10;;;6.10;;
81546;SDS011;71078;48.358;10.960;2023-08-17T02:35:06;11.20;;;6.15;;
81546;SDS011;71078;48.358;10.960;2023-08-17T02:37:27;11.15;;;6.75;;
81546;SDS011;71078;48.358;10.960;2023-08-17T02:39:48;12.25;;;7.35;;
81546;SDS011;71078;48.358;10.960;2023-08-17T02:42:09;12.57;;;6.95;;
81546;SDS011;71078;48.358;10.960;2023-08-17T02:44:29;12.88;;;6.40;;
81546;SDS011;71078;48.358;10.960;2023-08-17T02:46:50;11.38;;;6.20;;
81546;SDS011;71078;48.358;10.960;2023-08-17T02:49:11;11.45;;;6.13;;
81546;SDS011;71078;48.358;10.960;2023-08-17T02:51:31;10.90;;;7.20;;
81546;SDS011;71078;48.358;10.960;2023-08-17T02:53:52;10.68;;;6.35;;
81546;SDS011;71078;48.358;10.960;2023-08-17T02:56:12;12.38;;;6.13;;
81546;SDS011;71078;48.358;10.960;2023-08-17T02:58:33;12.27;;;6.68;;
81546;SDS011;71078;48.358;10.960;2023-08-17T03:00:54;10.75;;;6.55;;
81546;SDS011;71078;48.358;10.960;2023-08-17T03:03:14;10.32;;;6.72;;
81546;SDS011;71078;48.358;10.960;2023-08-17T03:05:35;13.23;;;6.07;;
81546;SDS011;71078;48.358;10.960;2023-08-17T03:07:56;11.52;;;6.28;;
81546;SDS011;71078;48.358;10.960;2023-08-17T03:10:16;10.98;;;6.75;;
81546;SDS011;71078;48.358;10.960;2023-08-17T03:12:37;11.95;;;6.57;;
81546;SDS011;71078;48.358;10.960;2023-08-17T03:14:59;11.13;;;6.75;;
81546;SDS011;71078;48.358;10.960;2023-08-17T03:17:19;10.93;;;6.13;;
81546;SDS011;71078;48.358;10.960;2023-08-17T03:19:40;10.85;;;6.25;;
81546;SDS011;71078;48.358;10.960;2023-08-17T03:22:01;10.40;;;5.45;;
81546;SDS011;71078;48.358;10.960;2023-08-17T03:24:22;10.35;;;5.35;;
81546;SDS011;71078;48.358;10.960;2023-08-17T03:26:43;10.43;;;6.15;;
81546;SDS011;71078;48.358;10.960;2023-08-17T03:29:03;10.40;;;5.90;;
81546;SDS011;71078;48.358;10.960;2023-08-17T03:31:24;11.38;;;6.43;;
81546;SDS011;71078;48.358;10.960;2023-08-17T03:33:44;10.60;;;6.07;;
81546;SDS011;71078;48.358;10.960;2023-08-17T03:36:05;10.38;;;5.95;;
81546;SDS011;71078;48.358;10.960;2023-08-17T03:38:26;12.88;;;6.45;;
81546;SDS011;71078;48.358;10.960;2023-08-17T03:40:46;11.68;;;6.22;;
81546;SDS011;71078;48.358;10.960;2023-08-17T03:43:07;10.38;;;6.47;;
81546;SDS011;71078;48.358;10.960;2023-08-17T03:45:28;10.70;;;6.30;;
81546;SDS011;71078;48.358;10.960;2023-08-17T03:47:50;12.02;;;6.40;;
81546;SDS011;71078;48.358;10.960;2023-08-17T03:50:10;9.88;;;5.88;;
81546;SDS011;71078;48.358;10.960;2023-08-17T03:52:31;10.30;;;5.65;;
81546;SDS011;71078;48.358;10.960;2023-08-17T03:54:51;10.88;;;6.22;;
81546;SDS011;71078;48.358;10.960;2023-08-17T03:57:12;12.25;;;6.85;;
81546;SDS011;71078;48.358;10.960;2023-08-17T03:59:32;12.15;;;6.32;;
81546;SDS011;71078;48.358;10.960;2023-08-17T04:01:53;12.02;;;7.15;;
81546;SDS011;71078;48.358;10.960;2023-08-17T04:04:14;11.23;;;6.55;;
81546;SDS011;71078;48.358;10.960;2023-08-17T04:06:35;11.80;;;6.50;;
81546;SDS011;71078;48.358;10.960;2023-08-17T04:08:56;10.75;;;5.95;;
81546;SDS011;71078;48.358;10.960;2023-08-17T04:11:17;11.05;;;6.57;;
81546;SDS011;71078;48.358;10.960;2023-08-17T04:13:37;11.25;;;6.53;;
81546;SDS011;71078;48.358;10.960;2023-08-17T04:15:58;12.80;;;7.28;;
81546;SDS011;71078;48.358;10.960;2023-08-17T04:18:19;12.82;;;6.90;;
81546;SDS011;71078;48.358;10.960;2023-08-17T04:20:39;13.20;;;7.38;;
81546;SDS011;71078;48.358;10.960;2023-08-17T04:23:00;13.98;;;7.55;;
81546;SDS011;71078;48.358;10.960;2023-08-17T04:25:20;12.27;;;7.30;;
81546;SDS011;71078;48.358;10.960;2023-08-17T04:27:41;12.18;;;6.90;;
81546;SDS011;71078;48.358;10.960;2023-08-17T04:30:02;11.82;;;6.55;;
81546;SDS011;71078;48.358;10.960;2023-08-17T04:32:22;12.95;;;6.97;;
81546;SDS011;71078;48.358;10.960;2023-08-17T04:34:44;11.18;;;6.18;;
81546;SDS011;71078;48.358;10.960;2023-08-17T04:37:06;11.10;;;6.53;;
81546;SDS011;71078;48.358;10.960;2023-08-17T04:39:26;11.45;;;6.63;;
81546;SDS011;71078;48.358;10.960;2023-08-17T04:41:47;12.57;;;6.95;;
81546;SDS011;71078;48.358;10.960;2023-08-17T04:44:08;12.20;;;7.00;;
81546;SDS011;71078;48.358;10.960;2023-08-17T04:46:29;13.77;;;7.47;;
81546;SDS011;71078;48.358;10.960;2023-08-17T04:48:49;14.15;;;7.70;;
81546;SDS011;71078;48.358;10.960;2023-08-17T04:51:10;12.73;;;7.80;;
81546;SDS011;71078;48.358;10.960;2023-08-17T04:53:31;12.13;;;6.20;;
81546;SDS011;71078;48.358;10.960;2023-08-17T04:55:51;13.10;;;7.10;;
81546;SDS011;71078;48.358;10.960;2023-08-17T04:58:12;11.55;;;5.95;;
81546;SDS011;71078;48.358;10.960;2023-08-17T05:00:32;13.95;;;7.13;;
81546;SDS011;71078;48.358;10.960;2023-08-17T05:02:54;13.23;;;7.68;;
81546;SDS011;71078;48.358;10.960;2023-08-17T05:05:15;11.00;;;6.85;;
81546;SDS011;71078;48.358;10.960;2023-08-17T05:07:36;13.27;;;6.35;;
81546;SDS011;71078;48.358;10.960;2023-08-17T05:09:57;11.50;;;6.05;;
81546;SDS011;71078;48.358;10.960;2023-08-17T05:12:17;10.18;;;6.45;;
81546;SDS011;71078;48.358;10.960;2023-08-17T05:14:37;11.98;;;6.68;;
81546;SDS011;71078;48.358;10.960;2023-08-17T05:16:58;10.98;;;6.25;;
81546;SDS011;71078;48.358;10.960;2023-08-17T05:19:18;11.85;;;6.68;;
81546;SDS011;71078;48.358;10.960;2023-08-17T05:21:39;12.25;;;6.43;;
81546;SDS011;71078;48.358;10.960;2023-08-17T05:23:59;11.05;;;6.30;;
81546;SDS011;71078;48.358;10.960;2023-08-17T05:26:20;13.43;;;7.15;;
81546;SDS011;71078;48.358;10.960;2023-08-17T05:28:40;11.95;;;6.95;;
81546;SDS011;71078;48.358;10.960;2023-08-17T05:31:06;13.07;;;6.45;;
81546;SDS011;71078;48.358;10.960;2023-08-17T05:33:27;12.93;;;7.40;;
81546;SDS011;71078;48.358;10.960;2023-08-17T05:35:53;12.07;;;6.85;;
81546;SDS011;71078;48.358;10.960;2023-08-17T05:38:14;12.57;;;6.60;;
81546;SDS011;71078;48.358;10.960;2023-08-17T05:40:34;12.55;;;7.05;;
81546;SDS011;71078;48.358;10.960;2023-08-17T05:42:55;11.68;;;6.95;;
81546;SDS011;71078;48.358;10.960;2023-08-17T05:45:16;12.40;;;7.15;;
81546;SDS011;71078;48.358;10.960;2023-08-17T05:47:37;10.70;;;6.35;;
81546;SDS011;71078;48.358;10.960;2023-08-17T05:49:57;13.32;;;6.80;;
81546;SDS011;71078;48.358;10.960;2023-08-17T05:52:18;12.30;;;7.18;;
81546;SDS011;71078;48.358;10.960;2023-08-17T05:54:38;14.50;;;7.07;;
81546;SDS011;71078;48.358;10.960;2023-08-17T05:56:59;13.40;;;6.50;;
81546;SDS011;71078;48.358;10.960;2023-08-17T05:59:20;12.43;;;6.00;;
81546;SDS011;71078;48.358;10.960;2023-08-17T06:01:41;13.68;;;6.97;;
81546;SDS011;71078;48.358;10.960;2023-08-17T06:04:02;12.98;;;7.40;;
81546;SDS011;71078;48.358;10.960;2023-08-17T06:06:25;12.38;;;6.93;;
81546;SDS011;71078;48.358;10.960;2023-08-17T06:08:46;13.52;;;7.45;;
81546;SDS011;71078;48.358;10.960;2023-08-17T06:11:07;13.38;;;7.85;;
81546;SDS011;71078;48.358;10.960;2023-08-17T06:13:28;12.25;;;7.10;;
81546;SDS011;71078;48.358;10.960;2023-08-17T06:15:48;14.85;;;8.15;;
81546;SDS011;71078;48.358;10.960;2023-08-17T06:18:09;12.00;;;7.40;;
81546;SDS011;71078;48.358;10.960;2023-08-17T06:20:29;12.80;;;7.45;;
81546;SDS011;71078;48.358;10.960;2023-08-17T06:22:50;16.02;;;9.18;;
81546;SDS011;71078;48.358;10.960;2023-08-17T06:25:10;13.80;;;8.52;;
81546;SDS011;71078;48.358;10.960;2023-08-17T06:27:31;13.93;;;7.43;;
81546;SDS011;71078;48.358;10.960;2023-08-17T06:29:52;17.85;;;10.20;;
81546;SDS011;71078;48.358;10.960;2023-08-17T06:32:13;16.85;;;10.45;;
81546;SDS011;71078;48.358;10.960;2023-08-17T06:34:33;17.10;;;9.23;;
81546;SDS011;71078;48.358;10.960;2023-08-17T06:36:59;15.02;;;10.20;;
81546;SDS011;71078;48.358;10.960;2023-08-17T06:39:22;17.23;;;10.00;;
81546;SDS011;71078;48.358;10.960;2023-08-17T06:41:43;17.52;;;10.20;;
81546;SDS011;71078;48.358;10.960;2023-08-17T06:44:03;21.08;;;11.88;;
81546;SDS011;71078;48.358;10.960;2023-08-17T06:46:26;18.08;;;9.52;;
81546;SDS011;71078;48.358;10.960;2023-08-17T06:48:48;22.10;;;12.35;;
81546;SDS011;71078;48.358;10.960;2023-08-17T06:51:08;19.08;;;10.63;;
81546;SDS011;71078;48.358;10.960;2023-08-17T06:53:30;16.38;;;9.82;;
81546;SDS011;71078;48.358;10.960;2023-08-17T06:55:51;18.55;;;10.77;;
81546;SDS011;71078;48.358;10.960;2023-08-17T06:58:11;18.05;;;10.52;;
81546;SDS011;71078;48.358;10.960;2023-08-17T07:00:32;17.05;;;10.68;;
81546;SDS011;71078;48.358;10.960;2023-08-17T07:02:52;17.33;;;10.10;;
81546;SDS011;71078;48.358;10.960;2023-08-17T07:07:38;16.90;;;9.90;;
81546;SDS011;71078;48.358;10.960;2023-08-17T07:09:59;19.42;;;10.27;;
81546;SDS011;71078;48.358;10.960;2023-08-17T07:12:22;18.40;;;10.82;;
81546;SDS011;71078;48.358;10.960;2023-08-17T07:14:44;15.88;;;9.48;;
81546;SDS011;71078;48.358;10.960;2023-08-17T07:17:05;13.82;;;8.68;;
81546;SDS011;71078;48.358;10.960;2023-08-17T07:19:26;14.98;;;9.10;;
81546;SDS011;71078;48.358;10.960;2023-08-17T07:22:06;15.88;;;8.75;;
81546;SDS011;71078;48.358;10.960;2023-08-17T07:24:27;17.10;;;9.45;;
81546;SDS011;71078;48.358;10.960;2023-08-17T07:26:48;17.58;;;9.68;;
81546;SDS011;71078;48.358;10.960;2023-08-17T07:29:08;16.27;;;8.82;;
81546;SDS011;71078;48.358;10.960;2023-08-17T07:31:29;17.00;;;9.60;;
81546;SDS011;71078;48.358;10.960;2023-08-17T07:33:49;16.10;;;9.15;;
81546;SDS011;71078;48.358;10.960;2023-08-17T07:36:10;14.80;;;8.25;;
81546;SDS011;71078;48.358;10.960;2023-08-17T07:38:31;15.48;;;7.38;;
81546;SDS011;71078;48.358;10.960;2023-08-17T07:40:51;13.75;;;7.60;;
81546;SDS011;71078;48.358;10.960;2023-08-17T07:43:12;14.55;;;8.30;;
81546;SDS011;71078;48.358;10.960;2023-08-17T07:45:33;15.15;;;8.80;;
81546;SDS011;71078;48.358;10.960;2023-08-17T07:47:54;14.85;;;8.80;;
81546;SDS011;71078;48.358;10.960;2023-08-17T07:50:14;12.40;;;7.60;;
81546;SDS011;71078;48.358;10.960;2023-08-17T07:52:35;12.63;;;7.47;;
81546;SDS011;71078;48.358;10.960;2023-08-17T07:54:55;15.50;;;9.45;;
81546;SDS011;71078;48.358;10.960;2023-08-17T07:57:15;13.25;;;7.65;;
81546;SDS011;71078;48.358;10.960;2023-08-17T07:59:36;11.75;;;6.88;;
81546;SDS011;71078;48.358;10.960;2023-08-17T08:01:57;15.13;;;8.10;;
81546;SDS011;71078;48.358;10.960;2023-08-17T08:04:18;11.85;;;7.47;;
81546;SDS011;71078;48.358;10.960;2023-08-17T08:06:38;15.38;;;9.73;;
81546;SDS011;71078;48.358;10.960;2023-08-17T08:08:59;16.13;;;9.43;;
81546;SDS011;71078;48.358;10.960;2023-08-17T08:11:21;14.75;;;9.18;;
81546;SDS011;71078;48.358;10.960;2023-08-17T08:13:42;12.80;;;8.23;;
81546;SDS011;71078;48.358;10.960;2023-08-17T08:16:03;12.13;;;7.28;;
81546;SDS011;71078;48.358;10.960;2023-08-17T08:18:24;16.83;;;10.13;;
81546;SDS011;71078;48.358;10.960;2023-08-17T08:20:45;15.52;;;9.23;;
81546;SDS011;71078;48.358;10.960;2023-08-17T08:23:06;17.08;;;9.63;;
81546;SDS011;71078;48.358;10.960;2023-08-17T08:25:26;15.05;;;9.13;;
81546;SDS011;71078;48.358;10.960;2023-08-17T08:27:47;15.95;;;8.90;;
81546;SDS011;71078;48.358;10.960;2023-08-17T08:30:08;14.07;;;8.98;;
81546;SDS011;71078;48.358;10.960;2023-08-17T08:32:29;15.10;;;9.65;;
81546;SDS011;71078;48.358;10.960;2023-08-17T08:34:50;14.82;;;9.70;;
81546;SDS011;71078;48.358;10.960;2023-08-17T08:37:11;14.20;;;9.23;;
81546;SDS011;71078;48.358;10.960;2023-08-17T08:39:31;13.02;;;8.43;;
81546;SDS011;71078;48.358;10.960;2023-08-17T08:41:53;12.32;;;7.05;;
81546;SDS011;71078;48.358;10.960;2023-08-17T08:44:14;13.77;;;8.07;;
81546;SDS011;71078;48.358;10.960;2023-08-17T08:46:34;13.70;;;7.90;;
81546;SDS011;71078;48.358;10.960;2023-08-17T08:51:23;12.77;;;7.45;;
81546;SDS011;71078;48.358;10.960;2023-08-17T08:53:47;12.45;;;7.22;;
81546;SDS011;71078;48.358;10.960;2023-08-17T08:56:16;11.60;;;7.32;;
81546;SDS011;71078;48.358;10.960;2023-08-17T08:58:42;15.23;;;6.93;;
81546;SDS011;71078;48.358;10.960;2023-08-17T09:01:03;12.07;;;7.88;;
81546;SDS011;71078;48.358;10.960;2023-08-17T09:03:28;12.88;;;7.70;;
81546;SDS011;71078;48.358;10.960;2023-08-17T09:05:53;13.02;;;7.95;;
81546;SDS011;71078;48.358;10.960;2023-08-17T09:08:21;10.68;;;6.85;;
81546;SDS011;71078;48.358;10.960;2023-08-17T09:10:43;12.35;;;7.50;;
81546;SDS011;71078;48.358;10.960;2023-08-17T09:13:04;12.52;;;7.97;;
81546;SDS011;71078;48.358;10.960;2023-08-17T09:15:25;13.35;;;8.10;;
81546;SDS011;71078;48.358;10.960;2023-08-17T09:17:46;13.60;;;7.68;;
81546;SDS011;71078;48.358;10.960;2023-08-17T09:20:09;12.45;;;6.93;;
81546;SDS011;71078;48.358;10.960;2023-08-17T09:22:37;11.90;;;7.28;;
81546;SDS011;71078;48.358;10.960;2023-08-17T09:25:02;13.50;;;8.23;;
81546;SDS011;71078;48.358;10.960;2023-08-17T09:27:23;13.15;;;8.18;;
81546;SDS011;71078;48.358;10.960;2023-08-17T09:29:44;13.07;;;7.45;;
81546;SDS011;71078;48.358;10.960;2023-08-17T09:32:06;12.27;;;7.78;;
81546;SDS011;71078;48.358;10.960;2023-08-17T09:34:29;13.23;;;8.00;;
81546;SDS011;71078;48.358;10.960;2023-08-17T09:36:51;14.57;;;9.30;;
81546;SDS011;71078;48.358;10.960;2023-08-17T09:39:11;14.32;;;8.90;;
81546;SDS011;71078;48.358;10.960;2023-08-17T09:41:38;13.27;;;8.80;;
81546;SDS011;71078;48.358;10.960;2023-08-17T09:44:02;12.60;;;7.70;;
81546;SDS011;71078;48.358;10.960;2023-08-17T09:46:24;10.80;;;6.80;;
81546;SDS011;71078;48.358;10.960;2023-08-17T09:48:47;12.05;;;6.57;;
81546;SDS011;71078;48.358;10.960;2023-08-17T09:51:08;10.77;;;6.53;;
81546;SDS011;71078;48.358;10.960;2023-08-17T09:53:29;14.00;;;8.05;;
81546;SDS011;71078;48.358;10.960;2023-08-17T09:55:49;12.65;;;7.28;;
81546;SDS011;71078;48.358;10.960;2023-08-17T09:58:11;10.15;;;6.10;;
81546;SDS011;71078;48.358;10.960;2023-08-17T10:02:56;9.10;;;5.70;;
81546;SDS011;71078;48.358;10.960;2023-08-17T10:05:27;11.20;;;5.72;;
81546;SDS011;71078;48.358;10.960;2023-08-17T10:10:15;12.32;;;7.10;;
81546;SDS011;71078;48.358;10.960;2023-08-17T10:12:48;11.82;;;6.35;;
81546;SDS011;71078;48.358;10.960;2023-08-17T10:15:15;9.68;;;6.57;;
81546;SDS011;71078;48.358;10.960;2023-08-17T10:18:26;10.88;;;6.18;;
81546;SDS011;71078;48.358;10.960;2023-08-17T10:21:02;10.40;;;6.80;;
81546;SDS011;71078;48.358;10.960;2023-08-17T10:23:26;10.93;;;6.75;;
81546;SDS011;71078;48.358;10.960;2023-08-17T10:25:48;12.50;;;7.10;;
81546;SDS011;71078;48.358;10.960;2023-08-17T10:28:11;9.95;;;6.10;;
81546;SDS011;71078;48.358;10.960;2023-08-17T10:30:32;11.43;;;6.25;;
81546;SDS011;71078;48.358;10.960;2023-08-17T10:32:53;11.32;;;6.10;;
81546;SDS011;71078;48.358;10.960;2023-08-17T10:35:14;8.88;;;5.78;;
81546;SDS011;71078;48.358;10.960;2023-08-17T10:37:35;10.07;;;6.35;;
81546;SDS011;71078;48.358;10.960;2023-08-17T10:39:58;9.65;;;6.35;;
81546;SDS011;71078;48.358;10.960;2023-08-17T10:44:56;12.73;;;5.43;;
81546;SDS011;71078;48.358;10.960;2023-08-17T10:47:18;8.73;;;5.40;;
81546;SDS011;71078;48.358;10.960;2023-08-17T10:49:41;11.13;;;5.95;;
81546;SDS011;71078;48.358;10.960;2023-08-17T10:52:03;10.07;;;6.13;;
81546;SDS011;71078;48.358;10.960;2023-08-17T10:54:26;9.27;;;5.72;;
81546;SDS011;71078;48.358;10.960;2023-08-17T10:56:56;10.15;;;5.45;;
81546;SDS011;71078;48.358;10.960;2023-08-17T10:59:26;9.82;;;5.90;;
81546;SDS011;71078;48.358;10.960;2023-08-17T11:01:47;9.27;;;5.78;;
81546;SDS011;71078;48.358;10.960;2023-08-17T11:04:15;9.77;;;5.78;;
81546;SDS011;71078;48.358;10.960;2023-08-17T11:06:37;10.27;;;6.03;;
81546;SDS011;71078;48.358;10.960;2023-08-17T11:08:58;9.20;;;5.75;;
81546;SDS011;71078;48.358;10.960;2023-08-17T11:11:19;10.48;;;5.60;;
81546;SDS011;71078;48.358;10.960;2023-08-17T11:13:42;9.02;;;4.93;;
81546;SDS011;71078;48.358;10.960;2023-08-17T11:16:05;10.40;;;5.80;;
81546;SDS011;71078;48.358;10.960;2023-08-17T11:18:27;8.80;;;5.35;;
81546;SDS011;71078;48.358;10.960;2023-08-17T11:20:48;10.13;;;5.68;;
81546;SDS011;71078;48.358;10.960;2023-08-17T11:23:10;10.57;;;5.82;;
81546;SDS011;71078;48.358;10.960;2023-08-17T11:25:32;10.20;;;5.60;;
81546;SDS011;71078;48.358;10.960;2023-08-17T11:27:54;8.38;;;4.70;;
81546;SDS011;71078;48.358;10.960;2023-08-17T11:30:14;8.30;;;4.55;;
81546;SDS011;71078;48.358;10.960;2023-08-17T11:32:35;7.65;;;4.20;;
81546;SDS011;71078;48.358;10.960;2023-08-17T11:34:56;8.45;;;4.68;;
81546;SDS011;71078;48.358;10.960;2023-08-17T11:37:19;8.00;;;4.55;;
81546;SDS011;71078;48.358;10.960;2023-08-17T11:39:43;8.98;;;5.28;;
81546;SDS011;71078;48.358;10.960;2023-08-17T11:42:04;7.85;;;4.80;;
81546;SDS011;71078;48.358;10.960;2023-08-17T11:44:25;8.45;;;4.50;;
81546;SDS011;71078;48.358;10.960;2023-08-17T11:46:45;8.25;;;4.93;;
81546;SDS011;71078;48.358;10.960;2023-08-17T11:49:07;8.10;;;4.72;;
81546;SDS011;71078;48.358;10.960;2023-08-17T11:51:28;7.65;;;4.75;;
81546;SDS011;71078;48.358;10.960;2023-08-17T11:53:50;8.13;;;4.55;;
81546;SDS011;71078;48.358;10.960;2023-08-17T11:56:11;7.85;;;4.43;;
81546;SDS011;71078;48.358;10.960;2023-08-17T11:58:47;7.88;;;4.20;;
81546;SDS011;71078;48.358;10.960;2023-08-17T12:01:08;8.88;;;4.80;;
81546;SDS011;71078;48.358;10.960;2023-08-17T12:03:31;8.80;;;4.72;;
81546;SDS011;71078;48.358;10.960;2023-08-17T12:05:52;6.90;;;4.20;;
81546;SDS011;71078;48.358;10.960;2023-08-17T12:08:13;7.10;;;4.55;;
81546;SDS011;71078;48.358;10.960;2023-08-17T12:10:37;7.57;;;4.00;;
81546;SDS011;71078;48.358;10.960;2023-08-17T12:12:58;7.95;;;4.57;;
81546;SDS011;71078;48.358;10.960;2023-08-17T12:15:21;7.68;;;4.25;;
81546;SDS011;71078;48.358;10.960;2023-08-17T12:17:45;6.82;;;3.60;;
81546;SDS011;71078;48.358;10.960;2023-08-17T12:20:07;7.53;;;3.60;;
81546;SDS011;71078;48.358;10.960;2023-08-17T12:22:28;6.63;;;3.50;;
81546;SDS011;71078;48.358;10.960;2023-08-17T12:24:50;6.22;;;3.30;;
81546;SDS011;71078;48.358;10.960;2023-08-17T12:27:11;7.38;;;4.10;;
81546;SDS011;71078;48.358;10.960;2023-08-17T12:29:32;7.13;;;3.70;;
81546;SDS011;71078;48.358;10.960;2023-08-17T12:31:53;6.78;;;3.40;;
81546;SDS011;71078;48.358;10.960;2023-08-17T12:34:13;7.65;;;3.95;;
81546;SDS011;71078;48.358;10.960;2023-08-17T12:36:34;6.78;;;3.78;;
81546;SDS011;71078;48.358;10.960;2023-08-17T12:38:57;7.22;;;3.47;;
81546;SDS011;71078;48.358;10.960;2023-08-17T12:41:18;7.32;;;3.50;;
81546;SDS011;71078;48.358;10.960;2023-08-17T12:43:39;6.43;;;3.33;;
81546;SDS011;71078;48.358;10.960;2023-08-17T12:46:00;7.10;;;3.83;;
81546;SDS011;71078;48.358;10.960;2023-08-17T12:48:20;8.10;;;3.38;;
81546;SDS011;71078;48.358;10.960;2023-08-17T12:50:41;6.72;;;3.42;;
81546;SDS011;71078;48.358;10.960;2023-08-17T12:53:03;6.50;;;2.95;;
81546;SDS011;71078;48.358;10.960;2023-08-17T12:55:24;9.27;;;5.03;;
81546;SDS011;71078;48.358;10.960;2023-08-17T12:57:45;7.80;;;4.47;;
81546;SDS011;71078;48.358;10.960;2023-08-17T13:00:05;7.63;;;4.38;;
81546;SDS011;71078;48.358;10.960;2023-08-17T13:02:27;8.77;;;3.80;;
81546;SDS011;71078;48.358;10.960;2023-08-17T13:04:48;7.18;;;4.03;;
81546;SDS011;71078;48.358;10.960;2023-08-17T13:07:09;6.97;;;4.00;;
81546;SDS011;71078;48.358;10.960;2023-08-17T13:09:29;6.88;;;4.30;;
81546;SDS011;71078;48.358;10.960;2023-08-17T13:11:50;8.30;;;4.10;;
81546;SDS011;71078;48.358;10.960;2023-08-17T13:14:10;8.13;;;3.80;;
81546;SDS011;71078;48.358;10.960;2023-08-17T13:16:31;8.18;;;3.72;;
81546;SDS011;71078;48.358;10.960;2023-08-17T13:18:51;7.70;;;3.70;;
81546;SDS011;71078;48.358;10.960;2023-08-17T13:21:12;8.43;;;5.05;;
81546;SDS011;71078;48.358;10.960;2023-08-17T13:23:35;8.15;;;3.97;;
81546;SDS011;71078;48.358;10.960;2023-08-17T13:25:56;8.15;;;4.35;;
81546;SDS011;71078;48.358;10.960;2023-08-17T13:28:17;8.65;;;3.90;;
81546;SDS011;71078;48.358;10.960;2023-08-17T13:30:38;8.80;;;4.03;;
81546;SDS011;71078;48.358;10.960;2023-08-17T13:32:59;7.15;;;3.58;;
81546;SDS011;71078;48.358;10.960;2023-08-17T13:35:20;9.88;;;3.17;;
81546;SDS011;71078;48.358;10.960;2023-08-17T13:37:41;7.22;;;4.22;;
81546;SDS011;71078;48.358;10.960;2023-08-17T13:40:01;7.03;;;4.07;;
81546;SDS011;71078;48.358;10.960;2023-08-17T13:42:22;6.75;;;3.65;;
81546;SDS011;71078;48.358;10.960;2023-08-17T13:44:43;6.85;;;3.65;;
81546;SDS011;71078;48.358;10.960;2023-08-17T13:47:04;7.43;;;3.67;;
81546;SDS011;71078;48.358;10.960;2023-08-17T13:49:24;7.22;;;3.42;;
81546;SDS011;71078;48.358;10.960;2023-08-17T13:51:45;13.40;;;4.88;;
81546;SDS011;71078;48.358;10.960;2023-08-17T13:54:06;14.50;;;4.45;;
81546;SDS011;71078;48.358;10.960;2023-08-17T13:56:26;6.65;;;3.22;;
81546;SDS011;71078;48.358;10.960;2023-08-17T13:58:48;7.18;;;3.08;;
81546;SDS011;71078;48.358;10.960;2023-08-17T14:01:09;7.07;;;3.28;;
81546;SDS011;71078;48.358;10.960;2023-08-17T14:03:31;6.15;;;3.25;;
81546;SDS011;71078;48.358;10.960;2023-08-17T14:05:52;7.60;;;3.83;;
81546;SDS011;71078;48.358;10.960;2023-08-17T14:08:13;6.18;;;2.85;;